Time;durP1;ratioP1;P1;durP2;ratioP2;P2;SDS_P1;SDS_P2;PMS_P1;PMS_P2;Temp;Humidity;BMP_temperature;BMP_pressure;BME280_temperature;BME280_humidity;BME280_pressure;Samples;Min_cycle;Max_cycle;Signal;HPM_P1;HPM_P2
2022/02/03 00:00:19;;;;;;;;;;;1.10;79.40;;;;;;5020454;28;92567;-44
2022/02/03 00:02:57;;;;;;;;;;;1.10;79.50;;;;;;5022081;28;91971;-44
2022/02/03 00:05:33;;;;;;;;;;;1.10;79.60;;;;;;5022151;28;93688;-44
2022/02/03 00:22:08;;;;;;;;;;;1.10;79.60;;;;;;5020041;28;92184;-44
2022/02/03 00:24:50;;;;;;;;;;;1.10;79.50;;;;;;5021857;28;91992;-43
2022/02/03 00:27:22;;;;;;;;;;;1.10;79.60;;;;;;5021869;28;93930;-43
2022/02/03 00:51:17;;;;;;;;;;;1.00;79.80;;;;;;5019507;28;93088;-43
2022/02/03 00:53:43;;;;;;;;;;;1.00;79.80;;;;;;5021157;28;92149;-44
2022/02/03 00:56:12;;;;;;;;;;;1.00;79.70;;;;;;5023738;28;93728;-44
2022/02/03 00:58:41;;;;;;;;;;;1.00;79.70;;;;;;5021091;28;92248;-44
2022/02/03 01:01:11;;;;;;;;;;;1.00;79.90;;;;;;5021073;28;93936;-43
2022/02/03 01:03:37;;;;;;;;;;;1.00;79.90;;;;;;5021290;28;93800;-44
2022/02/03 01:06:03;;;;;;;;;;;1.00;79.80;;;;;;5021108;28;92281;-44
2022/02/03 01:08:31;;;;;;;;;;;1.00;79.70;;;;;;5021378;28;92513;-43
2022/02/03 01:11:09;;;;;;;;;;;1.00;79.70;;;;;;5019347;28;95972;-44
2022/02/03 01:13:57;;;;;;;;;;;1.00;79.80;;;;;;5021112;28;91941;-44
2022/02/03 01:48:22;;;;;;;;;;;1.00;79.80;;;;;;5020050;28;91976;-43
2022/02/03 01:53:38;;;;;;;;;;;0.90;80.00;;;;;;5020087;28;92339;-44
2022/02/03 01:56:05;;;;;;;;;;;0.90;80.10;;;;;;5020803;28;91413;-44
2022/02/03 01:58:51;;;;;;;;;;;0.90;80.00;;;;;;5020285;28;93033;-43
2022/02/03 02:01:30;;;;;;;;;;;0.90;80.10;;;;;;5022219;27;94758;-43
2022/02/03 02:04:11;;;;;;;;;;;0.90;80.00;;;;;;5022750;28;93108;-44
2022/02/03 02:06:57;;;;;;;;;;;1.00;80.00;;;;;;5019487;28;94367;-44
2022/02/03 02:09:52;;;;;;;;;;;0.90;80.00;;;;;;5020326;28;92104;-43
2022/02/03 02:12:28;;;;;;;;;;;0.90;80.00;;;;;;5020215;28;94183;-44
2022/02/03 02:40:05;;;;;;;;;;;0.90;80.20;;;;;;5020112;28;91961;-44
2022/02/03 02:42:38;;;;;;;;;;;0.90;80.30;;;;;;5019412;28;93984;-43
2022/02/03 02:45:07;;;;;;;;;;;0.90;80.20;;;;;;5019462;28;95127;-43
2022/02/03 02:47:32;;;;;;;;;;;0.90;80.20;;;;;;5019564;28;92191;-43
2022/02/03 02:50:05;;;;;;;;;;;0.90;80.20;;;;;;5020048;28;93932;-43
2022/02/03 02:52:39;;;;;;;;;;;0.90;80.30;;;;;;5022147;28;94436;-44
2022/02/03 03:03:40;;;;;;;;;;;0.90;80.10;;;;;;5018514;28;92331;-44
2022/02/03 03:34:08;;;;;;;;;;;0.90;80.40;;;;;;5022745;28;92382;-44
2022/02/03 03:36:36;;;;;;;;;;;0.80;80.50;;;;;;5022029;28;94508;-44
2022/02/03 03:39:03;;;;;;;;;;;0.80;80.40;;;;;;5022356;28;92150;-44
2022/02/03 03:41:32;;;;;;;;;;;0.90;80.30;;;;;;5024241;28;94016;-44
2022/02/03 03:44:07;;;;;;;;;;;0.90;80.40;;;;;;5023171;28;91427;-44
2022/02/03 03:46:38;;;;;;;;;;;0.90;80.20;;;;;;5022308;28;92282;-44
2022/02/03 03:49:12;;;;;;;;;;;0.90;80.30;;;;;;5021903;28;95131;-44
2022/02/03 03:51:59;;;;;;;;;;;0.90;80.30;;;;;;5021437;28;93067;-44
2022/02/03 03:54:39;;;;;;;;;;;0.90;80.40;;;;;;5022460;28;94023;-43
2022/02/03 03:57:16;;;;;;;;;;;0.90;80.40;;;;;;5021627;28;94436;-44
2022/02/03 05:00:14;;;;;;;;;;;0.80;80.40;;;;;;5021227;28;92165;-44
2022/02/03 05:44:51;;;;;;;;;;;0.80;80.60;;;;;;5022269;28;93513;-44
2022/02/03 05:47:47;;;;;;;;;;;0.80;80.50;;;;;;5020541;28;95206;-44
2022/02/03 06:04:05;;;;;;;;;;;0.80;80.50;;;;;;5020881;28;91601;-44
2022/02/03 06:14:28;;;;;;;;;;;0.80;80.40;;;;;;5017848;28;92140;-44
2022/02/03 06:17:17;;;;;;;;;;;0.80;80.40;;;;;;5020184;28;94156;-45
2022/02/03 06:22:43;;;;;;;;;;;0.80;80.30;;;;;;5020150;28;92119;-44
2022/02/03 06:27:41;;;;;;;;;;;0.80;80.50;;;;;;5019641;28;93025;-44
2022/02/03 06:30:08;;;;;;;;;;;0.80;80.50;;;;;;5023481;28;91302;-43
2022/02/03 06:32:40;;;;;;;;;;;0.80;80.30;;;;;;5019091;28;95151;-44
2022/02/03 06:35:07;;;;;;;;;;;0.80;80.30;;;;;;5019942;28;92231;-44
2022/02/03 06:37:32;;;;;;;;;;;0.80;80.30;;;;;;5019181;28;93638;-44
2022/02/03 06:39:58;;;;;;;;;;;0.80;80.20;;;;;;5019239;28;94270;-44
2022/02/03 06:42:24;;;;;;;;;;;0.80;80.10;;;;;;5019269;28;92229;-44
2022/02/03 06:44:54;;;;;;;;;;;0.80;80.10;;;;;;5019744;28;93745;-44
2022/02/03 06:47:33;;;;;;;;;;;0.80;80.20;;;;;;5021171;28;94462;-44
2022/02/03 06:50:08;;;;;;;;;;;0.80;80.20;;;;;;5023408;28;92070;-44
2022/02/03 06:52:53;;;;;;;;;;;0.80;80.20;;;;;;5025825;28;93757;-43
2022/02/03 06:58:19;;;;;;;;;;;0.80;80.10;;;;;;5023462;28;91995;-43
2022/02/03 07:01:04;;;;;;;;;;;0.80;80.10;;;;;;5022836;28;94979;-44
2022/02/03 07:03:33;;;;;;;;;;;0.80;80.10;;;;;;5022519;28;93069;-44
2022/02/03 07:05:59;;;;;;;;;;;0.90;80.20;;;;;;5022928;28;95085;-45
2022/02/03 07:08:25;;;;;;;;;;;0.90;80.00;;;;;;5022110;28;94407;-44
2022/02/03 07:10:53;;;;;;;;;;;0.90;80.10;;;;;;5022741;28;92185;-44
2022/02/03 07:13:19;;;;;;;;;;;0.90;80.00;;;;;;5022744;28;93742;-44
2022/02/03 07:15:45;;;;;;;;;;;0.90;80.20;;;;;;5025379;28;94301;-43
2022/02/03 07:18:10;;;;;;;;;;;0.90;80.20;;;;;;5022777;28;94131;-44
2022/02/03 07:20:36;;;;;;;;;;;0.90;80.20;;;;;;5022694;28;92612;-44
2022/02/03 07:23:02;;;;;;;;;;;0.80;80.10;;;;;;5022660;28;92493;-44
2022/02/03 07:25:30;;;;;;;;;;;0.90;80.20;;;;;;5022803;28;92508;-44
2022/02/03 07:27:56;;;;;;;;;;;0.80;80.20;;;;;;5021372;28;94520;-44
2022/02/03 07:30:22;;;;;;;;;;;0.90;80.20;;;;;;5022603;28;92102;-44
2022/02/03 07:32:54;;;;;;;;;;;0.90;80.20;;;;;;5022434;28;94028;-44
2022/02/03 07:35:19;;;;;;;;;;;0.90;80.20;;;;;;5020657;28;95852;-44
2022/02/03 07:37:47;;;;;;;;;;;0.90;80.20;;;;;;5025303;28;92246;-44
2022/02/03 07:40:13;;;;;;;;;;;0.90;80.20;;;;;;5022061;28;94227;-43
2022/02/03 07:42:39;;;;;;;;;;;0.90;80.10;;;;;;5022013;28;92031;-44
2022/02/03 07:45:06;;;;;;;;;;;0.90;80.20;;;;;;5022820;28;93986;-44
2022/02/03 07:47:31;;;;;;;;;;;0.90;80.20;;;;;;5020598;28;96328;-45
2022/02/03 07:49:57;;;;;;;;;;;0.90;80.30;;;;;;5022253;28;92143;-44
2022/02/03 07:52:22;;;;;;;;;;;0.90;80.20;;;;;;5021688;28;94021;-44
2022/02/03 07:54:48;;;;;;;;;;;0.90;80.10;;;;;;5021745;28;94660;-44
2022/02/03 07:57:14;;;;;;;;;;;0.90;80.00;;;;;;5021905;28;92310;-43
2022/02/03 07:59:40;;;;;;;;;;;0.90;80.00;;;;;;5024701;28;93921;-43
2022/02/03 08:02:06;;;;;;;;;;;1.00;80.00;;;;;;5022178;28;92205;-44
2022/02/03 08:04:37;;;;;;;;;;;0.90;79.90;;;;;;5022249;28;93911;-44
2022/02/03 08:07:03;;;;;;;;;;;0.90;79.90;;;;;;5021492;28;94448;-44
2022/02/03 08:10:27;;;;;;;;;;;1.00;80.60;;;;;;5022380;28;91456;-44
2022/02/03 08:12:15;;;;;;;;;;;1.00;79.90;;;;;;5020438;28;92167;-44
2022/02/03 08:14:45;;;;;;;;;;;1.00;79.90;;;;;;5021555;28;93480;-44
2022/02/03 08:17:13;;;;;;;;;;;1.00;79.80;;;;;;5021070;28;93043;-44
2022/02/03 08:19:48;;;;;;;;;;;1.00;80.00;;;;;;5024359;28;95121;-44
2022/02/03 08:22:25;;;;;;;;;;;1.00;80.00;;;;;;5022021;28;91991;-43
2022/02/03 08:25:04;;;;;;;;;;;1.00;79.90;;;;;;5021876;28;93697;-44
2022/02/03 08:32:38;;;;;;;;;;;1.00;80.00;;;;;;5019510;28;92096;-44
2022/02/03 08:37:45;;;;;;;;;;;1.00;79.90;;;;;;5021507;28;92082;-44
2022/02/03 08:40:15;;;;;;;;;;;1.00;79.90;;;;;;5021507;28;94016;-44
2022/02/03 08:42:41;;;;;;;;;;;1.00;79.80;;;;;;5022914;28;95343;-44
2022/02/03 08:45:07;;;;;;;;;;;1.00;79.90;;;;;;5021380;28;94831;-44
2022/02/03 08:47:33;;;;;;;;;;;1.00;79.80;;;;;;5020976;28;94916;-44
2022/02/03 08:49:58;;;;;;;;;;;1.00;79.80;;;;;;5021297;28;92271;-43
2022/02/03 08:52:34;;;;;;;;;;;1.00;79.90;;;;;;5021383;28;94401;-43
2022/02/03 08:55:07;;;;;;;;;;;1.00;79.90;;;;;;5020732;28;94240;-45
2022/02/03 09:41:00;;;;;;;;;;;1.10;80.20;;;;;;5019906;28;92008;-45
2022/02/03 09:59:51;;;;;;;;;;;1.10;80.50;;;;;;5019589;28;92225;-45
2022/02/03 10:02:22;;;;;;;;;;;1.10;80.40;;;;;;5019723;28;93097;-45
2022/02/03 10:04:51;;;;;;;;;;;1.10;80.50;;;;;;5020306;28;94852;-44
2022/02/03 10:07:20;;;;;;;;;;;1.10;80.50;;;;;;5019902;28;93764;-44
2022/02/03 10:09:47;;;;;;;;;;;1.10;80.40;;;;;;5020121;28;92128;-44
2022/02/03 10:12:13;;;;;;;;;;;1.20;80.50;;;;;;5019969;28;94054;-44
2022/02/03 10:14:39;;;;;;;;;;;1.10;80.50;;;;;;5019468;28;94451;-44
2022/02/03 10:17:06;;;;;;;;;;;1.10;80.50;;;;;;5023233;28;92163;-44
2022/02/03 10:19:37;;;;;;;;;;;1.20;80.50;;;;;;5019963;28;93657;-44
2022/02/03 10:22:13;;;;;;;;;;;1.20;80.50;;;;;;5020009;28;91938;-43
2022/02/03 10:24:40;;;;;;;;;;;1.20;80.40;;;;;;5020044;28;93757;-43
2022/02/03 10:27:15;;;;;;;;;;;1.20;80.50;;;;;;5018441;28;94935;-46
2022/02/03 10:29:45;;;;;;;;;;;1.20;80.50;;;;;;5020160;28;91945;-44
2022/02/03 10:32:11;;;;;;;;;;;1.20;80.30;;;;;;5019863;28;94022;-44
2022/02/03 10:34:43;;;;;;;;;;;1.20;80.40;;;;;;5019209;28;94747;-43
2022/02/03 10:40:05;;;;;;;;;;;1.20;80.40;;;;;;5019210;28;92935;-45
2022/02/03 10:46:01;;;;;;;;;;;1.20;80.40;;;;;;5019434;28;91632;-43
2022/02/03 11:11:23;;;;;;;;;;;1.40;80.40;;;;;;5020074;28;91400;-43
2022/02/03 11:13:50;;;;;;;;;;;1.30;80.30;;;;;;5019761;28;93507;-43
2022/02/03 11:16:17;;;;;;;;;;;1.40;80.30;;;;;;5018906;28;94712;-43
2022/02/03 11:18:45;;;;;;;;;;;1.40;80.20;;;;;;5018731;28;93105;-43
2022/02/03 11:21:10;;;;;;;;;;;1.40;80.10;;;;;;5019181;28;94676;-44
2022/02/03 11:23:44;;;;;;;;;;;1.40;80.40;;;;;;5022045;28;94440;-43
2022/02/03 11:26:22;;;;;;;;;;;1.40;80.50;;;;;;5019417;28;92513;-43
2022/02/03 11:42:36;;;;;;;;;;;1.30;80.70;;;;;;5022232;28;92345;-43
2022/02/03 11:59:37;;;;;;;;;;;1.40;81.30;;;;;;5021629;28;92271;-42
2022/02/03 12:02:32;;;;;;;;;;;1.40;81.00;;;;;;5022149;28;92046;-44
2022/02/03 12:08:01;;;;;;;;;;;1.30;81.20;;;;;;5021495;28;93174;-43
2022/02/03 12:21:42;;;;;;;;;;;1.40;80.90;;;;;;5021720;28;92319;-43
2022/02/03 12:25:19;;;;;;;;;;;1.30;80.90;;;;;;5021538;28;92151;-44
2022/02/03 12:27:49;;;;;;;;;;;1.40;81.40;;;;;;5020244;28;92131;-45
2022/02/03 12:30:04;;;;;;;;;;;1.30;81.10;;;;;;5020651;28;93045;-44
2022/02/03 12:40:55;;;;;;;;;;;1.30;81.40;;;;;;5020774;28;92907;-44
2022/02/03 12:43:34;;;;;;;;;;;1.30;81.40;;;;;;5020630;28;95010;-44
2022/02/03 12:46:01;;;;;;;;;;;1.30;81.20;;;;;;5021318;28;92024;-44
2022/02/03 12:48:29;;;;;;;;;;;1.30;81.50;;;;;;5021614;28;94004;-46
2022/02/03 12:50:55;;;;;;;;;;;1.30;81.20;;;;;;5020831;28;94405;-44
2022/02/03 12:53:21;;;;;;;;;;;1.30;81.50;;;;;;5021248;28;92149;-45
2022/02/03 12:55:51;;;;;;;;;;;1.30;81.20;;;;;;5021448;28;94201;-44
2022/02/03 12:58:22;;;;;;;;;;;1.30;81.50;;;;;;5024407;28;93939;-43
2022/02/03 13:01:01;;;;;;;;;;;1.30;81.50;;;;;;5021416;28;93237;-44
2022/02/03 13:03:37;;;;;;;;;;;1.30;81.20;;;;;;5020853;28;94456;-44
2022/02/03 13:06:05;;;;;;;;;;;1.30;81.40;;;;;;5020371;28;93056;-46
2022/02/03 13:08:32;;;;;;;;;;;1.40;81.90;;;;;;5020996;28;94733;-46
2022/02/03 13:11:01;;;;;;;;;;;1.40;82.00;;;;;;5020545;28;94658;-44
2022/02/03 13:13:39;;;;;;;;;;;1.40;81.20;;;;;;5020798;28;92195;-43
2022/02/03 13:16:09;;;;;;;;;;;1.40;81.40;;;;;;5020942;28;93868;-44
2022/02/03 13:18:38;;;;;;;;;;;1.40;81.30;;;;;;5020265;28;94492;-45
2022/02/03 13:21:42;;;;;;;;;;;1.40;81.30;;;;;;5024112;28;92238;-44
2022/02/03 13:24:37;;;;;;;;;;;1.50;81.20;;;;;;5020560;28;93746;-44
2022/02/03 13:26:56;;;;;;;;;;;1.40;80.90;;;;;;5020569;28;92342;-45
2022/02/03 13:29:36;;;;;;;;;;;1.40;81.20;;;;;;5020800;28;94023;-44
2022/02/03 13:32:10;;;;;;;;;;;1.50;81.70;;;;;;5019647;28;95528;-45
2022/02/03 13:34:47;;;;;;;;;;;1.50;81.40;;;;;;5020700;28;92257;-47
2022/02/03 13:39:47;;;;;;;;;;;1.40;81.20;;;;;;5017995;28;93148;-44
2022/02/03 13:42:15;;;;;;;;;;;1.50;81.30;;;;;;5020010;28;92198;-43
2022/02/03 13:44:40;;;;;;;;;;;1.40;81.30;;;;;;5023150;28;94297;-44
2022/02/03 13:47:25;;;;;;;;;;;1.40;81.60;;;;;;5020458;28;92174;-44
2022/02/03 13:50:00;;;;;;;;;;;1.40;81.40;;;;;;5020851;28;93835;-44
2022/02/03 13:52:31;;;;;;;;;;;1.50;81.20;;;;;;5019805;28;94199;-43
2022/02/03 14:12:32;;;;;;;;;;;1.50;81.30;;;;;;5020514;28;92184;-43
2022/02/03 14:14:40;;;;;;;;;;;1.50;81.20;;;;;;5019100;28;92682;-44
2022/02/03 14:22:11;;;;;;;;;;;1.50;81.10;;;;;;5018079;28;93231;-43
2022/02/03 14:27:24;;;;;;;;;;;1.50;81.00;;;;;;5020160;28;92567;-45
2022/02/03 14:29:53;;;;;;;;;;;1.60;81.10;;;;;;5019352;28;94596;-46
2022/02/03 14:32:39;;;;;;;;;;;1.60;80.90;;;;;;5023010;28;92259;-44
2022/02/03 14:35:07;;;;;;;;;;;1.60;80.60;;;;;;5019383;28;94414;-43
2022/02/03 14:42:23;;;;;;;;;;;1.70;80.60;;;;;;5019316;28;92290;-44
2022/02/03 14:44:50;;;;;;;;;;;1.70;80.60;;;;;;5019832;28;92153;-45
2022/02/03 14:47:15;;;;;;;;;;;1.70;80.60;;;;;;5019705;28;94129;-43
2022/02/03 14:49:44;;;;;;;;;;;1.60;80.70;;;;;;5018452;28;95835;-45
2022/02/03 14:52:24;;;;;;;;;;;1.60;80.60;;;;;;5019534;28;92204;-44
2022/02/03 15:00:20;;;;;;;;;;;1.70;80.60;;;;;;5018935;28;92016;-43
2022/02/03 15:02:46;;;;;;;;;;;1.70;80.60;;;;;;5018751;28;94537;-43
2022/02/03 15:05:21;;;;;;;;;;;1.70;80.50;;;;;;5019804;28;92157;-44
2022/02/03 15:07:48;;;;;;;;;;;1.70;80.30;;;;;;5021401;28;94064;-44
2022/02/03 15:15:37;;;;;;;;;;;1.70;80.30;;;;;;5025510;28;92947;-43
2022/02/03 15:18:02;;;;;;;;;;;1.70;80.50;;;;;;5022736;28;92145;-44
2022/02/03 15:20:29;;;;;;;;;;;1.70;80.00;;;;;;5022918;28;92503;-44
2022/02/03 15:22:54;;;;;;;;;;;1.80;80.10;;;;;;5022287;28;94231;-43
2022/02/03 15:25:20;;;;;;;;;;;1.70;80.40;;;;;;5022688;28;92181;-43
2022/02/03 15:27:46;;;;;;;;;;;1.70;80.30;;;;;;5022763;28;93918;-43
2022/02/03 15:30:11;;;;;;;;;;;1.70;80.00;;;;;;5021811;28;94282;-43
2022/02/03 15:32:42;;;;;;;;;;;1.70;79.90;;;;;;5023037;28;91343;-43
2022/02/03 15:35:11;;;;;;;;;;;1.70;80.20;;;;;;5022817;28;93349;-43
2022/02/03 15:37:37;;;;;;;;;;;1.70;80.10;;;;;;5025038;28;94619;-44
2022/02/03 15:40:07;;;;;;;;;;;1.70;80.10;;;;;;5021969;28;93635;-43
2022/02/03 15:42:39;;;;;;;;;;;1.70;80.40;;;;;;5021610;28;94467;-44
2022/02/03 15:45:05;;;;;;;;;;;1.70;80.30;;;;;;5022452;28;91951;-44
2022/02/03 15:47:37;;;;;;;;;;;1.70;79.90;;;;;;5022409;28;92897;-44
2022/02/03 16:01:04;;;;;;;;;;;1.70;79.10;;;;;;5025598;28;92170;-44
2022/02/03 16:17:08;;;;;;;;;;;1.70;79.40;;;;;;5022513;28;91844;-44
2022/02/03 16:19:49;;;;;;;;;;;1.70;79.50;;;;;;5021253;28;94076;-43
2022/02/03 16:22:25;;;;;;;;;;;1.70;79.60;;;;;;5021896;28;91999;-44
2022/02/03 16:25:06;;;;;;;;;;;1.70;79.50;;;;;;5025191;28;93767;-45
2022/02/03 16:41:54;;;;;;;;;;;1.80;79.60;;;;;;5020398;28;92315;-43
2022/02/03 16:52:24;;;;;;;;;;;1.70;79.60;;;;;;5019667;28;91650;-46
2022/02/03 16:54:52;;;;;;;;;;;1.70;79.60;;;;;;5021116;28;93841;-44
2022/02/03 16:57:21;;;;;;;;;;;1.70;79.60;;;;;;5021210;28;92225;-43
2022/02/03 17:02:16;;;;;;;;;;;1.80;79.50;;;;;;5020637;28;93427;-44
2022/02/03 17:04:42;;;;;;;;;;;1.80;79.60;;;;;;5021112;28;92153;-45
2022/02/03 17:07:07;;;;;;;;;;;1.70;79.40;;;;;;5021244;28;93944;-44
2022/02/03 17:09:33;;;;;;;;;;;1.80;79.60;;;;;;5020600;28;94282;-43
2022/02/03 17:11:59;;;;;;;;;;;1.80;79.60;;;;;;5023996;28;91951;-47
2022/02/03 17:14:27;;;;;;;;;;;1.80;79.50;;;;;;5020659;28;94499;-44
2022/02/03 17:16:53;;;;;;;;;;;1.70;79.40;;;;;;5021393;28;91406;-48
2022/02/03 17:19:21;;;;;;;;;;;1.80;79.50;;;;;;5020999;28;93122;-47
2022/02/03 17:21:46;;;;;;;;;;;1.80;79.40;;;;;;5020484;28;94269;-45
2022/02/03 17:24:12;;;;;;;;;;;1.70;79.40;;;;;;5020521;28;93144;-45
2022/02/03 17:26:50;;;;;;;;;;;1.80;79.50;;;;;;5020760;28;93985;-44
2022/02/03 17:29:23;;;;;;;;;;;1.80;79.50;;;;;;5020193;28;93426;-45
2022/02/03 18:09:17;;;;;;;;;;;1.80;79.30;;;;;;5018092;28;92319;-42
2022/02/03 18:25:43;;;;;;;;;;;1.80;79.20;;;;;;5022409;28;93092;-43
2022/02/03 18:36:45;;;;;;;;;;;1.80;79.20;;;;;;5019989;28;91157;-44
2022/02/03 18:47:55;;;;;;;;;;;1.70;79.00;;;;;;5023202;28;92296;-44
2022/02/03 18:58:34;;;;;;;;;;;1.70;79.00;;;;;;5023291;28;92030;-47
2022/02/03 19:14:58;;;;;;;;;;;1.70;78.90;;;;;;5020374;28;92599;-42
2022/02/03 20:06:31;;;;;;;;;;;1.60;79.10;;;;;;5021410;28;92874;-44
2022/02/03 20:11:24;;;;;;;;;;;1.60;79.10;;;;;;5022336;28;92258;-45
2022/02/03 20:13:50;;;;;;;;;;;1.60;79.10;;;;;;5022125;28;94150;-44
2022/02/03 20:16:18;;;;;;;;;;;1.60;79.60;;;;;;5021376;28;94470;-43
2022/02/03 20:18:44;;;;;;;;;;;1.60;79.10;;;;;;5025087;28;92113;-46
2022/02/03 20:21:09;;;;;;;;;;;1.60;79.00;;;;;;5021411;28;94618;-44
2022/02/03 20:23:42;;;;;;;;;;;1.50;78.90;;;;;;5022234;28;91446;-45
2022/02/03 20:26:08;;;;;;;;;;;1.60;79.10;;;;;;5021952;28;93019;-44
2022/02/03 20:28:34;;;;;;;;;;;1.50;79.10;;;;;;5021305;28;93524;-44
2022/02/03 20:31:00;;;;;;;;;;;1.50;79.00;;;;;;5021004;28;93242;-45
2022/02/03 20:33:25;;;;;;;;;;;1.50;79.00;;;;;;5021421;28;95108;-44
2022/02/03 20:35:51;;;;;;;;;;;1.60;79.10;;;;;;5020985;28;94913;-44
2022/02/03 20:38:17;;;;;;;;;;;1.50;79.00;;;;;;5021569;28;92161;-43
2022/02/03 20:40:43;;;;;;;;;;;1.50;79.50;;;;;;5023768;28;93906;-44
2022/02/03 20:43:09;;;;;;;;;;;1.50;79.00;;;;;;5021470;28;92183;-44
2022/02/03 20:45:34;;;;;;;;;;;1.50;78.90;;;;;;5021621;28;93195;-44
2022/02/03 20:48:00;;;;;;;;;;;1.50;78.90;;;;;;5021331;28;93562;-44
2022/02/03 20:50:25;;;;;;;;;;;1.50;78.80;;;;;;5021614;28;92179;-44
2022/02/03 20:52:52;;;;;;;;;;;1.50;78.80;;;;;;5021354;28;94154;-44
2022/02/03 20:55:18;;;;;;;;;;;1.50;78.80;;;;;;5020141;28;95621;-44
2022/02/03 20:57:44;;;;;;;;;;;1.50;78.90;;;;;;5021163;28;92146;-43
2022/02/03 21:05:15;;;;;;;;;;;1.50;78.90;;;;;;5018429;28;92575;-46
2022/02/03 21:07:42;;;;;;;;;;;1.50;78.80;;;;;;5020724;28;94697;-45
2022/02/03 21:10:11;;;;;;;;;;;1.50;78.80;;;;;;5021108;28;92165;-44
2022/02/03 21:12:37;;;;;;;;;;;1.50;78.90;;;;;;5021533;28;92672;-44
2022/02/03 21:15:05;;;;;;;;;;;1.40;79.00;;;;;;5020384;28;94458;-44
2022/02/03 21:17:31;;;;;;;;;;;1.40;78.80;;;;;;5020886;28;92166;-43
2022/02/03 21:20:05;;;;;;;;;;;1.40;78.90;;;;;;5020545;28;94288;-44
2022/02/03 21:22:31;;;;;;;;;;;1.40;78.90;;;;;;5020563;28;93625;-44
2022/02/03 21:25:02;;;;;;;;;;;1.40;79.00;;;;;;5024237;28;92195;-44
2022/02/03 21:27:30;;;;;;;;;;;1.40;78.90;;;;;;5020276;28;94587;-44
2022/02/03 21:29:56;;;;;;;;;;;1.40;78.90;;;;;;5020801;28;92157;-44
2022/02/03 21:32:22;;;;;;;;;;;1.40;78.90;;;;;;5020751;28;93745;-43
2022/02/03 21:34:51;;;;;;;;;;;1.40;78.80;;;;;;5020280;28;95000;-44
2022/02/03 21:37:17;;;;;;;;;;;1.40;78.70;;;;;;5021203;28;91406;-44
2022/02/03 21:39:42;;;;;;;;;;;1.40;78.80;;;;;;5020714;28;93306;-44
2022/02/03 21:42:08;;;;;;;;;;;1.40;78.80;;;;;;5019575;28;94917;-43
2022/02/03 21:44:34;;;;;;;;;;;1.30;78.80;;;;;;5023122;28;93076;-44
2022/02/03 21:46:59;;;;;;;;;;;1.30;78.70;;;;;;5020273;28;94736;-44
2022/02/03 21:49:25;;;;;;;;;;;1.30;78.80;;;;;;5020491;28;92153;-44
2022/02/03 21:51:53;;;;;;;;;;;1.30;78.70;;;;;;5020611;28;93900;-43
2022/02/03 21:54:19;;;;;;;;;;;1.30;78.60;;;;;;5019928;28;93596;-43
2022/02/03 21:56:45;;;;;;;;;;;1.30;78.60;;;;;;5020446;28;92183;-43
2022/02/03 21:59:11;;;;;;;;;;;1.30;78.70;;;;;;5020397;28;94017;-43
2022/02/03 22:01:40;;;;;;;;;;;1.30;78.80;;;;;;5020597;28;93085;-44
2022/02/03 22:04:06;;;;;;;;;;;1.30;78.70;;;;;;5020238;28;92010;-44
2022/02/03 22:06:32;;;;;;;;;;;1.20;78.70;;;;;;5023104;28;92483;-44
2022/02/03 22:08:57;;;;;;;;;;;1.30;78.80;;;;;;5019635;28;92917;-44
2022/02/03 22:11:23;;;;;;;;;;;1.20;78.70;;;;;;5020016;28;95316;-43
2022/02/03 22:13:49;;;;;;;;;;;1.20;78.70;;;;;;5019459;28;94726;-43
2022/02/03 22:16:22;;;;;;;;;;;1.30;78.70;;;;;;5020004;28;92211;-44
2022/02/03 22:18:48;;;;;;;;;;;1.20;78.60;;;;;;5020329;28;93778;-44
2022/02/03 22:45:02;;;;;;;;;;;1.10;78.70;;;;;;5020118;28;92191;-43
2022/02/03 22:50:12;;;;;;;;;;;1.10;78.70;;;;;;5019502;28;92290;-43
2022/02/03 22:52:42;;;;;;;;;;;1.10;78.60;;;;;;5023198;28;91512;-43
2022/02/03 22:55:08;;;;;;;;;;;1.10;78.60;;;;;;5019109;28;93536;-44
2022/02/03 22:57:34;;;;;;;;;;;1.10;78.40;;;;;;5019257;28;92137;-43
2022/02/03 23:02:38;;;;;;;;;;;1.10;78.40;;;;;;5017429;28;93081;-43
2022/02/03 23:05:04;;;;;;;;;;;1.00;78.40;;;;;;5019723;28;92151;-43
2022/02/03 23:10:15;;;;;;;;;;;1.00;78.50;;;;;;5018801;28;93211;-43
2022/02/03 23:20:19;;;;;;;;;;;1.00;78.50;;;;;;5019552;28;91887;-43
2022/02/03 23:22:45;;;;;;;;;;;1.00;78.50;;;;;;5018612;28;94646;-43
2022/02/03 23:25:13;;;;;;;;;;;1.00;78.40;;;;;;5018641;28;93099;-43
2022/02/03 23:28:29;;;;;;;;;;;1.00;78.40;;;;;;5019295;28;94748;-43
2022/02/03 23:30:28;;;;;;;;;;;1.00;78.40;;;;;;5018389;28;92654;-43
2022/02/03 23:32:55;;;;;;;;;;;1.00;78.20;;;;;;5022655;28;92159;-43
2022/02/03 23:35:27;;;;;;;;;;;1.00;78.20;;;;;;5022792;28;94009;-43
